createdAt,value
2022-12-24T00:00:50.948Z,475.00
2022-12-24T00:01:50.756Z,479.00
2022-12-24T00:02:51.001Z,483.00
2022-12-24T00:03:50.905Z,482.00
2022-12-24T00:04:54.237Z,481.00
2022-12-24T00:05:50.625Z,477.00
2022-12-24T00:06:50.634Z,475.00
2022-12-24T00:07:50.569Z,475.00
2022-12-24T03:34:57.711Z,465.00
2022-12-24T03:35:57.667Z,466.00
2022-12-24T03:36:57.654Z,463.00
2022-12-24T03:37:57.605Z,464.00
2022-12-24T03:38:57.586Z,464.00
2022-12-24T03:39:57.557Z,463.00
2022-12-24T03:40:57.538Z,463.00
2022-12-24T03:41:57.509Z,461.00
2022-12-24T03:42:57.475Z,459.00
2022-12-24T03:43:57.442Z,458.00
2022-12-24T03:44:57.418Z,456.00
2022-12-24T03:45:57.427Z,456.00
2022-12-24T04:52:55.778Z,459.00
2022-12-24T04:54:55.787Z,462.00
2022-12-24T04:55:55.723Z,462.00
2022-12-24T05:29:54.864Z,455.00
2022-12-24T05:30:54.882Z,456.00
2022-12-24T05:31:54.815Z,458.00
2022-12-24T05:32:54.801Z,457.00
2022-12-24T05:33:54.938Z,459.00
2022-12-24T05:34:54.744Z,459.00
2022-12-24T05:35:54.712Z,461.00
2022-12-24T05:36:54.691Z,459.00
2022-12-24T05:37:54.666Z,458.00
2022-12-24T05:38:54.647Z,459.00
2022-12-24T05:39:54.615Z,460.00
2022-12-24T05:40:54.590Z,460.00
2022-12-24T05:41:54.570Z,460.00
2022-12-24T05:42:54.562Z,458.00
2022-12-24T05:43:54.515Z,455.00
2022-12-24T05:44:54.501Z,454.00
2022-12-24T05:45:54.576Z,453.00
2022-12-24T05:46:54.448Z,453.00
2022-12-24T05:47:54.433Z,454.00
2022-12-24T05:48:54.414Z,457.00
2022-12-24T05:49:54.382Z,456.00
2022-12-24T05:50:54.358Z,459.00
2022-12-24T05:51:54.338Z,458.00
2022-12-24T05:52:54.326Z,458.00
2022-12-24T05:53:54.300Z,460.00
2022-12-24T05:54:54.308Z,461.00
2022-12-24T05:55:54.265Z,459.00
2022-12-24T05:56:54.241Z,458.00
2022-12-24T05:57:54.223Z,465.00
2022-12-24T05:58:54.218Z,465.00
2022-12-24T05:59:54.182Z,462.00
2022-12-24T06:00:54.157Z,461.00
2022-12-24T06:01:54.202Z,462.00
2022-12-24T06:02:54.221Z,462.00
2022-12-24T06:03:54.081Z,463.00
2022-12-24T06:04:54.149Z,462.00
2022-12-24T06:05:54.047Z,462.00
2022-12-24T06:06:54.009Z,462.00
2022-12-24T06:07:53.983Z,470.00
2022-12-24T06:08:53.967Z,470.00
2022-12-24T06:09:53.937Z,472.00
2022-12-24T06:10:53.916Z,472.00
2022-12-24T06:11:53.886Z,465.00
2022-12-24T06:12:53.855Z,465.00
2022-12-24T06:13:53.835Z,465.00
2022-12-24T06:14:53.832Z,463.00
2022-12-24T06:15:53.819Z,464.00
2022-12-24T06:16:53.806Z,465.00
2022-12-24T06:17:53.733Z,464.00
2022-12-24T06:18:53.705Z,466.00
2022-12-24T06:19:53.684Z,463.00
2022-12-24T06:20:53.657Z,465.00
2022-12-24T06:21:53.626Z,469.00
2022-12-24T06:22:53.595Z,470.00
2022-12-24T06:23:53.563Z,467.00
2022-12-24T06:24:53.538Z,468.00
2022-12-24T06:25:53.509Z,469.00
2022-12-24T06:26:53.484Z,470.00
2022-12-24T06:27:53.460Z,472.00
2022-12-24T06:28:53.452Z,468.00
2022-12-24T06:29:53.409Z,464.00
2022-12-24T06:30:58.682Z,467.00
2022-12-24T06:31:53.481Z,466.00
2022-12-24T06:32:53.345Z,464.00
2022-12-24T06:33:53.400Z,465.00
2022-12-24T06:34:53.280Z,466.00
2022-12-24T06:35:53.268Z,466.00
2022-12-24T06:36:53.232Z,467.00
2022-12-24T06:37:53.211Z,467.00
2022-12-24T06:38:53.183Z,466.00
2022-12-24T06:39:53.147Z,466.00
2022-12-24T06:40:53.150Z,466.00
2022-12-24T06:41:53.098Z,466.00
2022-12-24T06:42:53.073Z,465.00
2022-12-24T06:43:53.053Z,465.00
2022-12-24T06:44:53.036Z,464.00
2022-12-24T06:45:52.998Z,462.00
2022-12-24T06:46:53.102Z,461.00
2022-12-24T06:47:52.982Z,459.00
2022-12-24T06:48:52.925Z,457.00
2022-12-24T06:49:52.905Z,462.00
2022-12-24T06:50:52.873Z,461.00
2022-12-24T06:51:52.850Z,461.00
2022-12-24T06:52:52.826Z,461.00
2022-12-24T06:53:52.820Z,462.00
2022-12-24T06:54:52.782Z,461.00
2022-12-24T06:55:52.751Z,466.00
2022-12-24T06:56:52.740Z,467.00
2022-12-24T06:57:52.740Z,464.00
2022-12-24T06:58:52.696Z,464.00
2022-12-24T06:59:52.685Z,464.00
2022-12-24T07:00:52.672Z,465.00
2022-12-24T07:01:52.816Z,465.00
2022-12-24T07:02:52.686Z,467.00
2022-12-24T07:03:52.692Z,467.00
2022-12-24T07:04:52.560Z,466.00
2022-12-24T07:05:52.543Z,466.00
2022-12-24T07:06:52.519Z,466.00
2022-12-24T07:07:52.496Z,464.00
2022-12-24T07:08:52.485Z,465.00
2022-12-24T07:09:52.512Z,464.00
2022-12-24T07:10:54.420Z,468.00
2022-12-24T07:11:52.394Z,467.00
2022-12-24T07:12:52.373Z,465.00
2022-12-24T07:13:52.362Z,464.00
2022-12-24T07:14:52.331Z,464.00
2022-12-24T07:15:52.406Z,464.00
2022-12-24T07:16:58.527Z,463.00
2022-12-24T07:17:52.342Z,460.00
2022-12-24T07:18:52.239Z,462.00
2022-12-24T07:19:52.196Z,461.00
2022-12-24T07:20:52.171Z,463.00
2022-12-24T07:21:52.151Z,463.00
2022-12-24T07:22:52.128Z,466.00
2022-12-24T07:23:52.145Z,463.00
2022-12-24T07:24:52.075Z,465.00
2022-12-24T07:25:52.039Z,464.00
2022-12-24T07:26:52.021Z,460.00
2022-12-24T07:27:52.006Z,455.00
2022-12-24T07:28:51.971Z,457.00
2022-12-24T07:29:51.945Z,460.00
2022-12-24T07:30:51.909Z,461.00
2022-12-24T07:31:51.906Z,461.00
2022-12-24T07:32:51.861Z,460.00
2022-12-24T07:33:51.829Z,458.00
2022-12-24T07:34:51.821Z,457.00
2022-12-24T07:35:55.798Z,458.00
2022-12-24T07:36:51.731Z,457.00
2022-12-24T07:37:51.710Z,457.00
2022-12-24T07:38:51.670Z,456.00
2022-12-24T07:39:51.645Z,459.00
2022-12-24T07:40:51.611Z,460.00
2022-12-24T07:41:51.595Z,460.00
2022-12-24T07:42:51.581Z,462.00
2022-12-24T07:43:51.539Z,460.00
2022-12-24T07:44:51.536Z,459.00
2022-12-24T07:45:51.478Z,455.00
2022-12-24T07:46:51.515Z,454.00
2022-12-24T07:47:51.423Z,455.00
2022-12-24T07:48:51.394Z,456.00
2022-12-24T07:49:51.365Z,457.00
2022-12-24T07:50:51.371Z,456.00
2022-12-24T07:51:51.326Z,456.00
2022-12-24T07:52:51.307Z,460.00
2022-12-24T07:53:51.256Z,456.00
2022-12-24T07:54:51.233Z,454.00
2022-12-24T07:55:51.202Z,456.00
2022-12-24T07:56:51.175Z,456.00
2022-12-24T07:57:51.139Z,458.00
2022-12-24T07:58:51.108Z,452.00
2022-12-24T07:59:51.078Z,452.00
2022-12-24T08:00:51.051Z,450.00
2022-12-24T08:01:51.181Z,452.00
2022-12-24T08:02:51.177Z,447.00
2022-12-24T08:03:51.095Z,449.00
2022-12-24T08:04:50.926Z,450.00
2022-12-24T08:05:50.897Z,450.00
2022-12-24T08:06:50.899Z,450.00
2022-12-24T08:07:50.859Z,451.00
2022-12-24T08:08:50.809Z,451.00
2022-12-24T08:09:50.784Z,454.00
2022-12-24T08:10:50.791Z,453.00
2022-12-24T08:11:52.555Z,453.00
2022-12-24T08:12:50.704Z,454.00
2022-12-24T08:13:50.672Z,458.00
2022-12-24T08:14:50.645Z,457.00
2022-12-24T08:15:50.691Z,452.00
2022-12-24T08:16:50.621Z,450.00
2022-12-24T08:17:50.564Z,451.00
2022-12-24T08:18:50.542Z,453.00
2022-12-24T08:19:50.508Z,455.00
2022-12-24T08:20:50.477Z,456.00
2022-12-24T08:21:50.448Z,455.00
2022-12-24T08:22:50.440Z,454.00
2022-12-24T08:23:50.386Z,454.00
2022-12-24T08:24:50.360Z,454.00
2022-12-24T08:25:50.329Z,451.00
2022-12-24T08:26:50.302Z,451.00
2022-12-24T08:27:50.271Z,454.00
2022-12-24T08:28:50.244Z,456.00
2022-12-24T08:29:50.212Z,460.00
2022-12-24T08:30:50.213Z,461.00
2022-12-24T08:31:50.241Z,459.00
2022-12-24T08:32:50.118Z,459.00
2022-12-24T08:33:50.118Z,457.00
2022-12-24T08:34:50.071Z,455.00
2022-12-24T08:35:50.063Z,456.00
2022-12-24T08:36:50.014Z,456.00
2022-12-24T08:37:49.981Z,454.00
2022-12-24T08:38:49.975Z,454.00
2022-12-24T08:39:49.935Z,455.00
2022-12-24T08:40:49.977Z,454.00
2022-12-24T08:41:49.868Z,452.00
2022-12-24T08:42:49.880Z,452.00
2022-12-24T08:43:49.812Z,455.00
2022-12-24T08:44:49.782Z,455.00
2022-12-24T08:45:50.106Z,449.00
2022-12-24T08:46:49.712Z,449.00
2022-12-24T08:47:49.690Z,450.00
2022-12-24T08:48:49.650Z,450.00
2022-12-24T08:49:49.641Z,451.00
2022-12-24T08:50:49.606Z,456.00
2022-12-24T08:51:49.570Z,458.00
2022-12-24T08:52:49.538Z,455.00
2022-12-24T08:53:49.508Z,458.00
2022-12-24T08:54:49.505Z,458.00
2022-12-24T08:55:55.679Z,457.00
2022-12-24T08:56:49.462Z,456.00
2022-12-24T08:57:49.430Z,457.00
2022-12-24T08:58:49.392Z,455.00
2022-12-24T08:59:49.358Z,455.00
2022-12-24T09:00:49.409Z,455.00
2022-12-24T09:01:49.530Z,459.00
2022-12-24T09:02:49.363Z,459.00
2022-12-24T09:03:49.354Z,459.00
2022-12-24T09:04:49.224Z,459.00
2022-12-24T09:05:49.196Z,459.00
2022-12-24T09:06:49.173Z,460.00
2022-12-24T09:07:49.141Z,459.00
2022-12-24T09:08:49.128Z,457.00
2022-12-24T09:09:49.093Z,457.00
2022-12-24T09:10:49.102Z,458.00
2022-12-24T09:11:49.081Z,454.00
2022-12-24T09:12:49.015Z,452.00
2022-12-24T09:13:48.985Z,453.00
2022-12-24T09:14:49.040Z,456.00
2022-12-24T09:15:48.935Z,457.00
2022-12-24T09:16:49.137Z,459.00
2022-12-24T09:17:48.898Z,457.00
2022-12-24T09:18:48.859Z,455.00
2022-12-24T09:19:48.817Z,456.00
2022-12-24T09:20:53.891Z,454.00
2022-12-24T09:21:48.778Z,456.00
2022-12-24T09:22:48.742Z,455.00
2022-12-24T09:23:48.720Z,456.00
2022-12-24T09:24:48.699Z,456.00
2022-12-24T09:25:48.663Z,457.00
2022-12-24T09:26:53.831Z,457.00
2022-12-24T09:27:48.609Z,460.00
2022-12-24T09:28:48.588Z,458.00
2022-12-24T09:29:48.549Z,458.00
2022-12-24T09:30:48.522Z,458.00
2022-12-24T09:31:48.519Z,456.00
2022-12-24T09:32:48.476Z,458.00
2022-12-24T09:33:48.477Z,455.00
2022-12-24T09:34:48.438Z,453.00
2022-12-24T09:35:48.404Z,451.00
2022-12-24T09:36:48.380Z,452.00
2022-12-24T09:37:48.348Z,453.00
2022-12-24T09:38:48.323Z,456.00
2022-12-24T09:39:48.300Z,455.00
2022-12-24T09:40:48.277Z,457.00
2022-12-24T09:41:48.279Z,453.00
2022-12-24T09:42:48.243Z,450.00
2022-12-24T09:44:48.177Z,451.00
2022-12-24T09:45:48.181Z,453.00
2022-12-24T09:46:48.146Z,456.00
2022-12-24T09:47:48.123Z,456.00
2022-12-24T09:48:48.087Z,454.00
2022-12-24T09:49:48.065Z,453.00
2022-12-24T09:50:48.036Z,453.00
2022-12-24T09:51:48.036Z,455.00
2022-12-24T09:52:47.986Z,456.00
2022-12-24T09:53:47.953Z,457.00
2022-12-24T09:54:50.024Z,456.00
2022-12-24T09:55:47.927Z,459.00
2022-12-24T09:56:47.869Z,453.00
2022-12-24T09:57:47.835Z,452.00
2022-12-24T09:58:47.835Z,454.00
2022-12-24T09:59:47.774Z,454.00
2022-12-24T10:00:50.086Z,453.00
2022-12-24T10:01:47.895Z,451.00
2022-12-24T10:02:47.885Z,450.00
2022-12-24T10:03:47.776Z,449.00
2022-12-24T10:04:47.623Z,450.00
2022-12-24T10:05:47.602Z,450.00
2022-12-24T10:06:47.569Z,447.00
2022-12-24T10:07:47.553Z,449.00
2022-12-24T10:08:47.520Z,448.00
2022-12-24T10:09:47.484Z,448.00
2022-12-24T10:10:47.454Z,445.00
2022-12-24T10:11:47.432Z,445.00
2022-12-24T10:12:49.793Z,445.00
2022-12-24T10:13:47.385Z,444.00
2022-12-24T10:14:47.369Z,444.00
2022-12-24T10:15:47.324Z,450.00
2022-12-24T10:16:47.351Z,452.00
2022-12-24T10:17:47.280Z,446.00
2022-12-24T10:18:49.530Z,447.00
2022-12-24T10:19:47.235Z,448.00
2022-12-24T10:20:47.195Z,446.00
2022-12-24T10:21:47.203Z,446.00
2022-12-24T10:22:47.166Z,444.00
2022-12-24T10:23:47.114Z,443.00
2022-12-24T10:24:50.518Z,443.00
2022-12-24T10:25:47.069Z,444.00
2022-12-24T10:26:47.049Z,446.00
2022-12-24T10:27:47.016Z,447.00
2022-12-24T10:28:46.988Z,451.00
2022-12-24T10:29:46.959Z,450.00
2022-12-24T10:30:47.026Z,451.00
2022-12-24T10:31:46.897Z,451.00
2022-12-24T10:32:46.869Z,451.00
2022-12-24T10:33:46.844Z,451.00
2022-12-24T10:34:46.817Z,453.00
2022-12-24T10:35:46.799Z,456.00
2022-12-24T10:36:46.751Z,453.00
2022-12-24T10:37:46.723Z,452.00
2022-12-24T10:38:46.715Z,452.00
2022-12-24T10:39:46.682Z,450.00
2022-12-24T10:40:46.650Z,448.00
2022-12-24T10:41:46.625Z,450.00
2022-12-24T10:42:51.380Z,448.00
2022-12-24T10:43:46.582Z,445.00
2022-12-24T10:44:46.553Z,450.00
2022-12-24T10:45:46.638Z,446.00
2022-12-24T10:46:46.668Z,447.00
2022-12-24T10:47:46.475Z,446.00
2022-12-24T10:48:50.545Z,445.00
2022-12-24T10:49:46.577Z,445.00
2022-12-24T10:50:46.544Z,446.00
2022-12-24T10:51:46.542Z,444.00
2022-12-24T10:52:46.500Z,443.00
2022-12-24T10:53:46.464Z,443.00
2022-12-24T10:54:46.440Z,445.00
2022-12-24T10:55:46.423Z,445.00
2022-12-24T10:56:46.395Z,447.00
2022-12-24T10:57:46.360Z,448.00
2022-12-24T10:58:46.338Z,447.00
2022-12-24T10:59:46.302Z,449.00
2022-12-24T11:00:46.349Z,449.00
2022-12-24T11:01:46.504Z,450.00
2022-12-24T11:02:46.537Z,450.00
2022-12-24T11:03:46.329Z,451.00
2022-12-24T11:04:46.186Z,451.00
2022-12-24T11:05:46.203Z,448.00
2022-12-24T11:06:49.191Z,448.00
2022-12-24T11:07:46.102Z,447.00
2022-12-24T11:08:46.094Z,448.00
2022-12-24T11:09:46.053Z,447.00
2022-12-24T11:10:46.024Z,450.00
2022-12-24T11:11:45.999Z,449.00
2022-12-24T11:13:00.177Z,450.00
2022-12-24T11:13:45.973Z,450.00
2022-12-24T11:14:45.929Z,451.00
2022-12-24T11:15:46.022Z,452.00
2022-12-24T11:16:45.873Z,450.00
2022-12-24T11:17:45.848Z,448.00
2022-12-24T11:18:50.843Z,449.00
2022-12-24T11:19:45.807Z,449.00
2022-12-24T11:20:45.781Z,450.00
2022-12-24T11:21:45.758Z,453.00
2022-12-24T11:22:45.727Z,453.00
2022-12-24T11:23:45.712Z,452.00
2022-12-24T11:24:50.027Z,451.00
2022-12-24T11:25:45.840Z,452.00
2022-12-24T11:26:45.812Z,452.00
2022-12-24T11:27:45.793Z,453.00
2022-12-24T11:28:45.766Z,453.00
2022-12-24T11:29:45.741Z,454.00
2022-12-24T11:30:45.749Z,456.00
2022-12-24T11:31:45.706Z,459.00
2022-12-24T11:32:45.692Z,462.00
2022-12-24T11:33:45.658Z,466.00
2022-12-24T11:34:45.669Z,467.00
2022-12-24T11:35:45.624Z,467.00
2022-12-24T11:36:45.595Z,463.00
2022-12-24T11:37:45.573Z,462.00
2022-12-24T11:38:45.552Z,456.00
2022-12-24T11:39:45.526Z,454.00
2022-12-24T11:40:45.510Z,455.00
2022-12-24T11:41:45.497Z,452.00
2022-12-24T11:42:45.452Z,452.00
2022-12-24T11:43:45.432Z,449.00
2022-12-24T11:44:45.408Z,450.00
2022-12-24T11:45:45.386Z,451.00
2022-12-24T11:46:45.427Z,449.00
2022-12-24T11:47:45.340Z,452.00
2022-12-24T11:48:45.335Z,453.00
2022-12-24T11:49:45.313Z,453.00
2022-12-24T11:50:45.313Z,454.00
2022-12-24T11:51:45.253Z,455.00
2022-12-24T11:52:45.232Z,456.00
2022-12-24T11:53:45.212Z,456.00
2022-12-24T11:54:45.187Z,455.00
2022-12-24T11:55:45.190Z,454.00
2022-12-24T11:56:45.141Z,454.00
2022-12-24T11:57:45.130Z,453.00
2022-12-24T11:58:45.099Z,452.00
2022-12-24T11:59:45.076Z,452.00
2022-12-24T12:00:45.055Z,450.00
2022-12-24T12:01:45.151Z,451.00
2022-12-24T12:02:45.011Z,448.00
2022-12-24T12:03:45.045Z,449.00
2022-12-24T12:04:44.971Z,447.00
2022-12-24T12:05:44.914Z,448.00
2022-12-24T12:06:44.919Z,450.00
2022-12-24T12:07:44.867Z,454.00
2022-12-24T12:08:44.863Z,453.00
2022-12-24T12:09:44.806Z,454.00
2022-12-24T12:10:44.782Z,453.00
2022-12-24T12:11:44.769Z,457.00
2022-12-24T12:12:44.774Z,455.00
2022-12-24T12:13:44.721Z,453.00
2022-12-24T12:14:44.692Z,452.00
2022-12-24T12:15:44.704Z,454.00
2022-12-24T12:16:44.707Z,454.00
2022-12-24T12:17:44.603Z,452.00
2022-12-24T12:18:44.615Z,453.00
2022-12-24T12:19:44.560Z,453.00
2022-12-24T12:20:44.519Z,452.00
2022-12-24T12:21:44.496Z,447.00
2022-12-24T12:22:44.493Z,445.00
2022-12-24T12:23:44.444Z,444.00
2022-12-24T12:24:44.412Z,447.00
2022-12-24T12:25:45.120Z,445.00
2022-12-24T12:26:44.347Z,446.00
2022-12-24T12:27:44.323Z,449.00
2022-12-24T12:28:44.282Z,451.00
2022-12-24T12:29:44.257Z,449.00
2022-12-24T12:30:44.237Z,448.00
2022-12-24T12:31:44.313Z,454.00
2022-12-24T12:32:44.284Z,452.00
2022-12-24T12:33:44.179Z,451.00
2022-12-24T12:34:44.145Z,451.00
2022-12-24T12:35:44.114Z,447.00
2022-12-24T12:36:44.064Z,446.00
2022-12-24T12:37:44.053Z,446.00
2022-12-24T12:38:44.016Z,444.00
2022-12-24T12:39:43.966Z,445.00
2022-12-24T12:40:43.914Z,447.00
2022-12-24T12:41:43.904Z,449.00
2022-12-24T12:42:43.845Z,449.00
2022-12-24T12:43:43.816Z,445.00
2022-12-24T12:44:43.782Z,446.00
2022-12-24T12:45:43.755Z,445.00
2022-12-24T12:46:43.787Z,448.00
2022-12-24T12:47:43.717Z,448.00
2022-12-24T12:48:43.682Z,448.00
2022-12-24T12:49:43.646Z,448.00
2022-12-24T12:50:43.621Z,446.00
2022-12-24T12:51:43.606Z,444.00
2022-12-24T12:52:43.564Z,447.00
2022-12-24T12:53:43.532Z,448.00
2022-12-24T12:54:43.531Z,448.00
2022-12-24T12:55:43.506Z,448.00
2022-12-24T12:56:43.488Z,449.00
2022-12-24T12:57:43.432Z,448.00
2022-12-24T12:58:43.407Z,446.00
2022-12-24T12:59:43.382Z,443.00
2022-12-24T13:00:43.389Z,445.00
2022-12-24T13:01:43.560Z,444.00
2022-12-24T13:02:43.511Z,442.00
2022-12-24T13:03:43.293Z,442.00
2022-12-24T13:04:43.263Z,443.00
2022-12-24T13:05:43.233Z,445.00
2022-12-24T13:06:43.203Z,443.00
2022-12-24T13:07:43.184Z,444.00
2022-12-24T13:08:43.155Z,443.00
2022-12-24T13:09:43.136Z,444.00
2022-12-24T13:10:43.137Z,443.00
2022-12-24T13:11:43.071Z,444.00
2022-12-24T13:12:43.046Z,444.00
2022-12-24T13:13:43.018Z,447.00
2022-12-24T13:14:43.002Z,448.00
2022-12-24T13:15:42.981Z,449.00
2022-12-24T13:16:43.018Z,449.00
2022-12-24T13:17:42.955Z,449.00
2022-12-24T13:18:42.911Z,451.00
2022-12-24T13:19:42.882Z,450.00
2022-12-24T13:20:42.869Z,449.00
2022-12-24T13:21:42.832Z,449.00
2022-12-24T13:22:42.802Z,446.00
2022-12-24T13:23:42.779Z,446.00
2022-12-24T13:24:46.522Z,444.00
2022-12-24T13:25:42.733Z,445.00
2022-12-24T13:26:42.732Z,446.00
2022-12-24T13:27:42.673Z,447.00
2022-12-24T13:28:42.638Z,445.00
2022-12-24T13:29:42.628Z,446.00
2022-12-24T13:30:42.623Z,445.00
2022-12-24T13:31:42.702Z,444.00
2022-12-24T13:32:42.540Z,444.00
2022-12-24T13:33:42.517Z,445.00
2022-12-24T13:34:42.485Z,443.00
2022-12-24T13:35:42.453Z,444.00
2022-12-24T13:36:42.430Z,443.00
2022-12-24T13:37:42.431Z,445.00
2022-12-24T13:38:42.367Z,445.00
2022-12-24T13:39:42.340Z,445.00
2022-12-24T13:40:42.321Z,444.00
2022-12-24T13:41:42.311Z,443.00
2022-12-24T13:42:42.282Z,443.00
2022-12-24T13:43:42.225Z,441.00
2022-12-24T13:44:42.196Z,438.00
2022-12-24T13:45:42.211Z,442.00
2022-12-24T13:46:42.143Z,439.00
2022-12-24T13:47:42.127Z,440.00
2022-12-24T13:48:42.103Z,441.00
2022-12-24T13:49:42.056Z,444.00
2022-12-24T13:50:42.070Z,445.00
2022-12-24T13:51:42.008Z,445.00
2022-12-24T13:52:42.833Z,444.00
2022-12-24T13:53:41.969Z,441.00
2022-12-24T13:54:41.931Z,439.00
2022-12-24T13:55:41.900Z,439.00
2022-12-24T13:56:41.888Z,441.00
2022-12-24T13:57:41.845Z,441.00
2022-12-24T13:58:41.867Z,442.00
2022-12-24T13:59:41.804Z,444.00
2022-12-24T14:00:41.848Z,443.00
2022-12-24T14:01:42.008Z,440.00
2022-12-24T14:02:41.982Z,441.00
2022-12-24T14:03:42.677Z,444.00
2022-12-24T14:04:41.689Z,447.00
2022-12-24T14:05:41.661Z,449.00
2022-12-24T14:06:41.646Z,446.00
2022-12-24T14:07:41.615Z,444.00
2022-12-24T14:08:41.589Z,447.00
2022-12-24T14:09:41.584Z,447.00
2022-12-24T14:10:41.548Z,447.00
2022-12-24T14:11:41.558Z,448.00
2022-12-24T14:12:41.495Z,447.00
2022-12-24T14:13:41.467Z,448.00
2022-12-24T14:14:41.470Z,448.00
2022-12-24T14:15:41.431Z,447.00
2022-12-24T14:16:41.570Z,449.00
2022-12-24T14:17:41.380Z,447.00
2022-12-24T14:18:41.354Z,443.00
2022-12-24T14:19:41.336Z,444.00
2022-12-24T14:20:41.344Z,447.00
2022-12-24T14:21:41.296Z,450.00
2022-12-24T14:22:41.269Z,448.00
2022-12-24T14:23:41.254Z,447.00
2022-12-24T14:24:41.231Z,445.00
2022-12-24T14:25:41.198Z,447.00
2022-12-24T14:26:41.184Z,443.00
2022-12-24T14:27:41.170Z,445.00
2022-12-24T14:28:41.142Z,445.00
2022-12-24T14:29:41.126Z,443.00
2022-12-24T14:30:41.131Z,443.00
2022-12-24T14:31:41.111Z,439.00
2022-12-24T14:32:41.043Z,436.00
2022-12-24T14:33:41.010Z,434.00
2022-12-24T14:34:40.986Z,435.00
2022-12-24T14:35:41.048Z,436.00
2022-12-24T14:36:40.939Z,437.00
2022-12-24T14:37:40.923Z,437.00
2022-12-24T14:38:40.873Z,438.00
2022-12-24T14:39:40.842Z,437.00
2022-12-24T14:40:40.814Z,436.00
2022-12-24T14:41:40.780Z,439.00
2022-12-24T14:42:40.763Z,440.00
2022-12-24T14:43:40.727Z,443.00
2022-12-24T14:44:40.697Z,441.00
2022-12-24T14:45:40.745Z,444.00
2022-12-24T14:46:40.720Z,446.00
2022-12-24T14:47:40.605Z,447.00
2022-12-24T14:48:40.575Z,447.00
2022-12-24T14:49:40.540Z,447.00
2022-12-24T14:50:40.517Z,444.00
2022-12-24T14:51:40.526Z,445.00
2022-12-24T14:53:11.989Z,446.00
2022-12-24T14:53:40.446Z,443.00
2022-12-24T14:54:40.397Z,446.00
2022-12-24T14:55:40.369Z,445.00
2022-12-24T14:56:40.346Z,447.00
2022-12-24T14:57:40.312Z,447.00
2022-12-24T14:58:40.290Z,447.00
2022-12-24T14:59:40.254Z,447.00
2022-12-24T15:00:40.220Z,448.00
2022-12-24T15:01:40.330Z,448.00
2022-12-24T15:02:40.455Z,449.00
2022-12-24T15:03:40.226Z,449.00
2022-12-24T15:04:40.116Z,449.00
2022-12-24T15:05:40.085Z,446.00
2022-12-24T15:06:40.071Z,447.00
2022-12-24T15:07:47.004Z,446.00
2022-12-24T15:08:40.007Z,445.00
2022-12-24T15:09:39.970Z,446.00
2022-12-24T15:10:39.962Z,446.00
2022-12-24T15:11:39.910Z,440.00
2022-12-24T15:12:39.891Z,442.00
2022-12-24T15:13:39.877Z,442.00
2022-12-24T15:14:39.831Z,442.00
2022-12-24T15:15:39.812Z,441.00
2022-12-24T15:16:39.820Z,442.00
2022-12-24T15:17:39.756Z,441.00
2022-12-24T15:18:39.773Z,442.00
2022-12-24T15:19:39.705Z,442.00
2022-12-24T15:20:39.685Z,443.00
2022-12-24T15:21:39.674Z,447.00
2022-12-24T15:22:39.635Z,452.00
2022-12-24T15:23:39.639Z,449.00
2022-12-24T15:24:39.603Z,446.00
2022-12-24T15:25:39.570Z,446.00
2022-12-24T15:26:40.179Z,449.00
2022-12-24T15:27:39.566Z,449.00
2022-12-24T15:28:39.488Z,446.00
2022-12-24T15:29:39.458Z,446.00
2022-12-24T15:30:39.451Z,444.00
2022-12-24T15:31:39.400Z,446.00
2022-12-24T15:32:39.373Z,448.00
2022-12-24T15:33:39.341Z,451.00
2022-12-24T15:34:39.352Z,453.00
2022-12-24T15:35:39.302Z,453.00
2022-12-24T15:36:39.269Z,456.00
2022-12-24T15:37:39.242Z,455.00
2022-12-24T15:38:39.220Z,456.00
2022-12-24T15:39:39.200Z,454.00
2022-12-24T15:40:39.169Z,452.00
2022-12-24T15:41:39.181Z,454.00
2022-12-24T15:42:39.125Z,452.00
2022-12-24T15:43:39.111Z,454.00
2022-12-24T15:44:39.073Z,454.00
2022-12-24T15:45:39.125Z,446.00
2022-12-24T15:46:39.091Z,448.00
2022-12-24T15:47:39.065Z,450.00
2022-12-24T15:48:38.979Z,448.00
2022-12-24T15:49:38.954Z,446.00
2022-12-24T15:50:38.969Z,447.00
2022-12-24T15:51:40.369Z,445.00
2022-12-24T15:52:38.882Z,444.00
2022-12-24T15:53:38.857Z,444.00
2022-12-24T15:54:38.829Z,443.00
2022-12-24T15:55:38.803Z,443.00
2022-12-24T15:56:38.781Z,442.00
2022-12-24T15:57:38.747Z,441.00
2022-12-24T15:58:38.777Z,442.00
2022-12-24T15:59:38.704Z,440.00
2022-12-24T16:00:38.671Z,440.00
2022-12-24T16:01:38.820Z,440.00
2022-12-24T16:02:38.811Z,438.00
2022-12-24T16:03:38.641Z,442.00
2022-12-24T16:04:38.559Z,441.00
2022-12-24T16:05:38.539Z,443.00
2022-12-24T16:06:38.529Z,444.00
2022-12-24T16:07:38.477Z,444.00
2022-12-24T16:08:38.470Z,442.00
2022-12-24T16:09:38.415Z,441.00
2022-12-24T16:10:38.389Z,442.00
2022-12-24T16:11:38.373Z,444.00
2022-12-24T16:12:38.374Z,444.00
2022-12-24T16:13:38.308Z,445.00
2022-12-24T16:14:38.288Z,444.00
2022-12-24T16:15:38.305Z,444.00
2022-12-24T16:16:38.216Z,447.00
2022-12-24T16:17:38.192Z,448.00
2022-12-24T16:18:38.173Z,446.00
2022-12-24T16:19:40.611Z,448.00
2022-12-24T16:20:38.111Z,448.00
2022-12-24T16:21:38.067Z,451.00
2022-12-24T16:22:38.052Z,450.00
2022-12-24T16:23:37.999Z,447.00
2022-12-24T16:24:37.971Z,446.00
2022-12-24T16:25:37.942Z,446.00
2022-12-24T16:26:37.920Z,445.00
2022-12-24T16:27:37.890Z,443.00
2022-12-24T16:28:37.855Z,445.00
2022-12-24T16:29:37.821Z,445.00
2022-12-24T16:30:37.801Z,446.00
2022-12-24T16:31:37.863Z,446.00
2022-12-24T16:32:37.733Z,445.00
2022-12-24T16:33:37.749Z,445.00
2022-12-24T16:34:37.676Z,446.00
2022-12-24T16:35:37.650Z,449.00
2022-12-24T16:36:37.619Z,452.00
2022-12-24T16:37:37.599Z,450.00
2022-12-24T16:38:37.601Z,447.00
2022-12-24T16:39:37.560Z,447.00
2022-12-24T16:40:37.521Z,447.00
2022-12-24T16:41:37.499Z,447.00
2022-12-24T16:42:37.507Z,451.00
2022-12-24T16:43:37.470Z,450.00
2022-12-24T16:44:37.467Z,450.00
2022-12-24T16:45:37.462Z,447.00
2022-12-24T16:46:37.458Z,445.00
2022-12-24T16:47:42.816Z,445.00
2022-12-24T16:48:37.340Z,447.00
2022-12-24T16:49:37.325Z,447.00
2022-12-24T16:50:37.302Z,448.00
2022-12-24T16:51:37.267Z,448.00
2022-12-24T16:52:37.250Z,448.00
2022-12-24T16:53:37.218Z,449.00
2022-12-24T16:54:37.229Z,450.00
2022-12-24T16:55:37.203Z,452.00
2022-12-24T16:56:37.162Z,451.00
2022-12-24T16:57:37.124Z,448.00
2022-12-24T16:58:37.095Z,447.00
2022-12-24T16:59:37.075Z,447.00
2022-12-24T17:00:37.053Z,450.00
2022-12-24T17:01:37.189Z,447.00
2022-12-24T17:02:37.239Z,447.00
2022-12-24T17:03:37.089Z,448.00
2022-12-24T17:04:36.964Z,449.00
2022-12-24T17:05:36.941Z,448.00
2022-12-24T17:06:36.921Z,449.00
2022-12-24T17:07:42.910Z,449.00
2022-12-24T17:08:36.863Z,454.00
2022-12-24T17:09:36.859Z,455.00
2022-12-24T17:10:36.839Z,450.00
2022-12-24T17:11:36.788Z,450.00
2022-12-24T17:12:36.764Z,448.00
2022-12-24T17:13:36.746Z,450.00
2022-12-24T17:14:36.731Z,449.00
2022-12-24T17:15:36.789Z,450.00
2022-12-24T17:16:36.664Z,448.00
2022-12-24T17:17:36.634Z,447.00
2022-12-24T17:18:36.608Z,446.00
2022-12-24T17:19:36.613Z,448.00
2022-12-24T17:20:36.551Z,448.00
2022-12-24T17:21:36.531Z,449.00
2022-12-24T17:22:36.495Z,448.00
2022-12-24T17:23:36.749Z,446.00
2022-12-24T17:24:36.449Z,446.00
2022-12-24T17:25:36.431Z,446.00
2022-12-24T17:26:36.425Z,446.00
2022-12-24T17:27:36.378Z,445.00
2022-12-24T17:28:36.352Z,444.00
2022-12-24T17:29:36.321Z,446.00
2022-12-24T17:30:36.295Z,444.00
2022-12-24T17:31:36.358Z,444.00
2022-12-24T17:32:36.261Z,442.00
2022-12-24T17:33:36.234Z,442.00
2022-12-24T17:34:36.213Z,443.00
2022-12-24T17:35:36.172Z,442.00